Portada
METAR-TAF:

METAR-TAF

Aeroports :

Hagåtña, Guam, Estats Units d'Amèrica

latitud: 13-29N, longitud: 144-48E, altitud: 91 m

Observació

L'informe es va fer fa 46 minuts, a les 10:54 UTC
Vent 12 kt del Est/Nord-Est
Temperatura 26°C
Humitat 89%
Pressió 1013 hPa
Visibilitat: 16.1 km
Cel clar

METAR: PGUM 201054Z 07012KT 10SM CLR 26/24 A2990 RMK AO2 RAE16 SLP115 P0000 T02610239

Hora: 21:40 (11:40 UTC)

Pronòstic

L'informe es va fer fa 6 hores i 9 minuts, a les 05:31 UTC
Pronòstic vàlid del 20 a les 06 UTC al 21 a les 12 UTC
Vent 14 kt del Est/Nord-Est
Visibilitat: 10 km
Núvols disperses a una alçada de 2000 ft
Núvols disperses a una alçada de 4000 ft
xàfecs en les proximitats
A partir de les 20 a les 0800 UTC
Vent 11 kt del Est/Nord-Est
Visibilitat: 10 km
Núvols disperses a una alçada de 2000 ft
Núvols disperses a una alçada de 5000 ft

TAF: PGUM 200531Z 2006/2112 07014KT P6SM VCSH SCT020 SCT040 FM200800 07011KT P6SM SCT020 SCT050

Observacions i pronòstics meteorològics de més de 4000 aeroports (METAR i TAF).

Les estacions disponibles són els punts grocs i vermells al mapa.

Posi el ratolí al punt desitjat per veure el nom de l'estació.

Feu clic per veure les observacions i els pronòstics meteorològics.

Per canviar el mapa: feu clic els botons verds amb una creu de color negre per apropar; al botó verd amb un guió per allunyar la imatge; o en les fletxes verdes per a mapes adjacents.


METAR-TAF: